Verona Landing, California
Current Conditions -  °F | °C
As of 12:53 PM on Sunday 21 Dec 2014 (Local Time) from KSMF Reporting Station
Broken Clouds Broken Clouds  
Wind Chill: 63°   Ceiling: 20000
Heat Index: 63°   Visibility: 10mi
Dew Point: 57°   Wind: 6mph
Humidity: 81%   Direction: 140°SE
Pressure: 30.24"   Gusts: NA
Location:  38.8689°N, 121.569°W
Report Text: KSMF 212053Z 14005KT 10SM FEW013 SCT075 BKN200 17/14 A3024 RMK AO2 SLP241 T01720139 58011 $
Loading
Personal Weather Stations






























Interactive Weather Map New forecast layout! Learn more

10-Day Weather Forecast

Advertisements
Track Severe Weather on mobile